sensor_id;sensor_type;location;lat;lon;timestamp;pressure;altitude;pressure_sealevel;temperature;humidity
45541;BME280;31265;49.680;8.608;2023-01-13T00:01:43;100093.75;;;9.36;100.00
45541;BME280;31265;49.680;8.608;2023-01-13T00:04:16;100097.09;;;9.35;100.00
45541;BME280;31265;49.680;8.608;2023-01-13T00:06:45;100103.38;;;9.35;100.00
45541;BME280;31265;49.680;8.608;2023-01-13T00:09:13;100096.34;;;9.34;100.00
45541;BME280;31265;49.680;8.608;2023-01-13T00:11:41;100090.31;;;9.61;100.00
45541;BME280;31265;49.680;8.608;2023-01-13T00:14:11;100084.25;;;9.62;100.00
45541;BME280;31265;49.680;8.608;2023-01-13T00:16:45;100084.44;;;9.57;100.00
45541;BME280;31265;49.680;8.608;2023-01-13T00:19:14;100070.75;;;9.59;100.00
45541;BME280;31265;49.680;8.608;2023-01-13T00:21:44;100065.56;;;9.63;100.00
45541;BME280;31265;49.680;8.608;2023-01-13T00:24:13;100068.91;;;9.61;100.00
45541;BME280;31265;49.680;8.608;2023-01-13T00:26:42;100069.81;;;9.64;100.00
45541;BME280;31265;49.680;8.608;2023-01-13T00:29:10;100063.91;;;9.67;100.00
45541;BME280;31265;49.680;8.608;2023-01-13T00:31:39;100063.50;;;9.71;100.00
45541;BME280;31265;49.680;8.608;2023-01-13T00:34:10;100059.44;;;9.72;100.00
45541;BME280;31265;49.680;8.608;2023-01-13T00:36:42;100061.44;;;9.72;100.00
45541;BME280;31265;49.680;8.608;2023-01-13T00:39:11;100060.91;;;9.73;100.00
45541;BME280;31265;49.680;8.608;2023-01-13T00:41:40;100051.44;;;9.76;100.00
45541;BME280;31265;49.680;8.608;2023-01-13T00:44:26;100052.41;;;9.71;100.00
45541;BME280;31265;49.680;8.608;2023-01-13T00:46:54;100045.00;;;9.74;100.00
45541;BME280;31265;49.680;8.608;2023-01-13T00:49:28;100046.44;;;9.82;100.00
45541;BME280;31265;49.680;8.608;2023-01-13T00:52:00;100035.19;;;9.80;100.00
45541;BME280;31265;49.680;8.608;2023-01-13T00:54:30;100032.59;;;9.82;100.00
45541;BME280;31265;49.680;8.608;2023-01-13T00:56:58;100030.44;;;9.73;100.00
45541;BME280;31265;49.680;8.608;2023-01-13T00:59:26;100030.59;;;9.75;100.00
45541;BME280;31265;49.680;8.608;2023-01-13T01:01:57;100030.38;;;9.81;100.00
45541;BME280;31265;49.680;8.608;2023-01-13T01:04:26;100015.97;;;9.82;100.00
45541;BME280;31265;49.680;8.608;2023-01-13T01:06:55;100025.97;;;9.78;100.00
45541;BME280;31265;49.680;8.608;2023-01-13T01:09:25;100015.25;;;9.74;100.00
45541;BME280;31265;49.680;8.608;2023-01-13T01:12:00;100011.38;;;9.77;100.00
45541;BME280;31265;49.680;8.608;2023-01-13T01:14:31;100012.72;;;9.68;100.00
45541;BME280;31265;49.680;8.608;2023-01-13T01:16:59;100013.63;;;9.71;100.00
45541;BME280;31265;49.680;8.608;2023-01-13T01:19:30;100002.72;;;9.73;100.00
45541;BME280;31265;49.680;8.608;2023-01-13T01:21:58;100000.34;;;9.69;100.00
45541;BME280;31265;49.680;8.608;2023-01-13T01:24:28;100006.81;;;9.72;100.00
45541;BME280;31265;49.680;8.608;2023-01-13T01:26:56;100002.38;;;9.69;100.00
45541;BME280;31265;49.680;8.608;2023-01-13T01:29:26;100005.66;;;9.75;100.00
45541;BME280;31265;49.680;8.608;2023-01-13T01:31:57;100017.13;;;9.72;100.00
45541;BME280;31265;49.680;8.608;2023-01-13T01:34:26;100014.59;;;9.66;100.00
45541;BME280;31265;49.680;8.608;2023-01-13T01:36:54;100023.97;;;9.71;100.00
45541;BME280;31265;49.680;8.608;2023-01-13T01:39:24;100021.22;;;9.71;100.00
45541;BME280;31265;49.680;8.608;2023-01-13T01:41:56;100008.66;;;9.69;100.00
45541;BME280;31265;49.680;8.608;2023-01-13T01:44:52;100014.22;;;9.69;100.00
45541;BME280;31265;49.680;8.608;2023-01-13T01:47:22;100002.38;;;9.69;100.00
45541;BME280;31265;49.680;8.608;2023-01-13T01:49:54;100010.41;;;9.82;100.00
45541;BME280;31265;49.680;8.608;2023-01-13T01:52:30;100002.16;;;9.75;100.00
45541;BME280;31265;49.680;8.608;2023-01-13T01:55:04;100009.41;;;9.70;100.00
45541;BME280;31265;49.680;8.608;2023-01-13T01:57:38;99994.22;;;9.71;100.00
45541;BME280;31265;49.680;8.608;2023-01-13T02:00:10;100001.63;;;9.68;100.00
45541;BME280;31265;49.680;8.608;2023-01-13T02:02:44;99999.41;;;9.75;100.00
45541;BME280;31265;49.680;8.608;2023-01-13T02:05:14;99995.72;;;9.72;100.00
45541;BME280;31265;49.680;8.608;2023-01-13T02:07:43;99994.63;;;9.67;100.00
45541;BME280;31265;49.680;8.608;2023-01-13T02:10:20;99992.59;;;9.68;100.00
45541;BME280;31265;49.680;8.608;2023-01-13T02:12:52;99999.00;;;9.78;100.00
45541;BME280;31265;49.680;8.608;2023-01-13T02:15:27;99983.38;;;9.65;100.00
45541;BME280;31265;49.680;8.608;2023-01-13T02:18:06;99980.38;;;9.71;100.00
45541;BME280;31265;49.680;8.608;2023-01-13T02:20:53;99976.72;;;9.68;100.00
45541;BME280;31265;49.680;8.608;2023-01-13T02:23:53;99971.34;;;9.71;100.00
45541;BME280;31265;49.680;8.608;2023-01-13T02:30:08;99968.81;;;9.65;100.00
45541;BME280;31265;49.680;8.608;2023-01-13T02:33:05;99967.72;;;9.60;100.00
45541;BME280;31265;49.680;8.608;2023-01-13T02:35:47;99969.59;;;9.58;100.00
45541;BME280;31265;49.680;8.608;2023-01-13T02:38:21;99961.09;;;9.56;100.00
45541;BME280;31265;49.680;8.608;2023-01-13T02:40:55;99963.69;;;9.54;100.00
45541;BME280;31265;49.680;8.608;2023-01-13T02:43:31;99958.75;;;9.44;100.00
45541;BME280;31265;49.680;8.608;2023-01-13T02:46:30;99957.97;;;9.52;100.00
45541;BME280;31265;49.680;8.608;2023-01-13T02:49:22;99953.63;;;9.41;100.00
45541;BME280;31265;49.680;8.608;2023-01-13T02:51:56;99942.19;;;9.37;100.00
45541;BME280;31265;49.680;8.608;2023-01-13T02:54:29;99937.41;;;9.37;100.00
45541;BME280;31265;49.680;8.608;2023-01-13T02:57:05;99945.72;;;9.37;100.00
45541;BME280;31265;49.680;8.608;2023-01-13T02:59:39;99948.31;;;9.35;100.00
45541;BME280;31265;49.680;8.608;2023-01-13T03:02:14;99945.72;;;9.37;100.00
45541;BME280;31265;49.680;8.608;2023-01-13T03:04:53;99951.28;;;9.30;100.00
45541;BME280;31265;49.680;8.608;2023-01-13T03:07:56;99944.06;;;9.34;100.00
45541;BME280;31265;49.680;8.608;2023-01-13T03:11:01;99940.97;;;9.30;100.00
45541;BME280;31265;49.680;8.608;2023-01-13T03:13:45;99949.09;;;9.28;100.00
45541;BME280;31265;49.680;8.608;2023-01-13T03:16:29;99943.59;;;9.20;100.00
45541;BME280;31265;49.680;8.608;2023-01-13T03:19:15;99943.59;;;9.20;100.00
45541;BME280;31265;49.680;8.608;2023-01-13T03:21:53;99926.94;;;9.28;100.00
45541;BME280;31265;49.680;8.608;2023-01-13T03:24:27;99925.50;;;9.19;100.00
45541;BME280;31265;49.680;8.608;2023-01-13T03:27:03;99924.75;;;9.19;100.00
45541;BME280;31265;49.680;8.608;2023-01-13T03:29:36;99916.09;;;9.22;100.00
45541;BME280;31265;49.680;8.608;2023-01-13T03:32:11;99931.44;;;9.16;100.00
45541;BME280;31265;49.680;8.608;2023-01-13T03:34:47;99932.72;;;9.15;100.00
45541;BME280;31265;49.680;8.608;2023-01-13T03:37:30;99920.53;;;9.18;100.00
45541;BME280;31265;49.680;8.608;2023-01-13T03:40:03;99919.06;;;9.17;100.00
45541;BME280;31265;49.680;8.608;2023-01-13T03:42:37;99925.38;;;9.10;100.00
45541;BME280;31265;49.680;8.608;2023-01-13T03:45:31;99915.59;;;9.09;100.00
45541;BME280;31265;49.680;8.608;2023-01-13T03:48:07;99926.66;;;9.09;100.00
45541;BME280;31265;49.680;8.608;2023-01-13T03:50:42;99910.19;;;9.18;100.00
45541;BME280;31265;49.680;8.608;2023-01-13T03:53:15;99908.56;;;9.15;100.00
45541;BME280;31265;49.680;8.608;2023-01-13T03:55:50;99893.41;;;9.16;100.00
45541;BME280;31265;49.680;8.608;2023-01-13T03:58:24;99898.56;;;9.20;100.00
45541;BME280;31265;49.680;8.608;2023-01-13T04:01:00;99895.81;;;9.20;100.00
45541;BME280;31265;49.680;8.608;2023-01-13T04:03:35;99889.31;;;9.25;100.00
45541;BME280;31265;49.680;8.608;2023-01-13T04:06:13;99884.56;;;9.18;100.00
45541;BME280;31265;49.680;8.608;2023-01-13T04:08:50;99876.56;;;9.22;100.00
45541;BME280;31265;49.680;8.608;2023-01-13T04:11:27;99874.75;;;9.17;100.00
45541;BME280;31265;49.680;8.608;2023-01-13T04:13:59;99865.38;;;9.12;100.00
45541;BME280;31265;49.680;8.608;2023-01-13T04:16:30;99862.41;;;9.18;100.00
45541;BME280;31265;49.680;8.608;2023-01-13T04:19:04;99874.59;;;9.15;100.00
45541;BME280;31265;49.680;8.608;2023-01-13T04:21:36;99868.91;;;9.13;100.00
45541;BME280;31265;49.680;8.608;2023-01-13T04:24:05;99864.81;;;9.14;100.00
45541;BME280;31265;49.680;8.608;2023-01-13T04:26:36;99857.84;;;9.13;100.00
45541;BME280;31265;49.680;8.608;2023-01-13T04:29:07;99868.44;;;9.24;100.00
45541;BME280;31265;49.680;8.608;2023-01-13T04:31:35;99885.06;;;9.24;100.00
45541;BME280;31265;49.680;8.608;2023-01-13T04:34:05;99864.22;;;9.23;100.00
45541;BME280;31265;49.680;8.608;2023-01-13T04:36:40;99881.97;;;9.20;100.00
45541;BME280;31265;49.680;8.608;2023-01-13T04:39:10;99875.28;;;9.23;100.00
45541;BME280;31265;49.680;8.608;2023-01-13T04:41:39;99881.91;;;9.28;100.00
45541;BME280;31265;49.680;8.608;2023-01-13T04:44:25;99872.13;;;9.26;100.00
45541;BME280;31265;49.680;8.608;2023-01-13T04:46:53;99877.59;;;9.34;100.00
45541;BME280;31265;49.680;8.608;2023-01-13T04:49:23;99873.88;;;9.39;100.00
45541;BME280;31265;49.680;8.608;2023-01-13T04:51:57;99877.44;;;9.32;100.00
45541;BME280;31265;49.680;8.608;2023-01-13T04:54:29;99864.09;;;9.38;100.00
45541;BME280;31265;49.680;8.608;2023-01-13T04:56:57;99857.66;;;9.36;100.00
45541;BME280;31265;49.680;8.608;2023-01-13T04:59:26;99855.63;;;9.36;100.00
45541;BME280;31265;49.680;8.608;2023-01-13T05:01:54;99861.00;;;9.34;100.00
45541;BME280;31265;49.680;8.608;2023-01-13T05:04:23;99854.00;;;9.33;100.00
45541;BME280;31265;49.680;8.608;2023-01-13T05:06:52;99848.47;;;9.33;100.00
45541;BME280;31265;49.680;8.608;2023-01-13T05:09:22;99854.50;;;9.39;100.00
45541;BME280;31265;49.680;8.608;2023-01-13T05:11:51;99853.38;;;9.42;100.00
45541;BME280;31265;49.680;8.608;2023-01-13T05:14:38;99844.16;;;9.40;100.00
45541;BME280;31265;49.680;8.608;2023-01-13T05:17:24;99843.75;;;9.43;100.00
45541;BME280;31265;49.680;8.608;2023-01-13T05:19:55;99837.50;;;9.43;100.00
45541;BME280;31265;49.680;8.608;2023-01-13T05:22:24;99828.38;;;9.50;100.00
45541;BME280;31265;49.680;8.608;2023-01-13T05:25:11;99830.44;;;9.50;100.00
45541;BME280;31265;49.680;8.608;2023-01-13T05:27:48;99825.03;;;9.52;100.00
45541;BME280;31265;49.680;8.608;2023-01-13T05:30:20;99828.72;;;9.54;100.00
45541;BME280;31265;49.680;8.608;2023-01-13T05:32:52;99820.00;;;9.58;100.00
45541;BME280;31265;49.680;8.608;2023-01-13T05:35:25;99820.00;;;9.58;100.00
45541;BME280;31265;49.680;8.608;2023-01-13T05:37:55;99824.13;;;9.49;100.00
45541;BME280;31265;49.680;8.608;2023-01-13T05:40:25;99823.06;;;9.44;100.00
45541;BME280;31265;49.680;8.608;2023-01-13T05:43:13;99824.72;;;9.47;100.00
45541;BME280;31265;49.680;8.608;2023-01-13T05:45:52;99823.41;;;9.48;100.00
45541;BME280;31265;49.680;8.608;2023-01-13T05:48:23;99814.53;;;9.50;100.00
45541;BME280;31265;49.680;8.608;2023-01-13T05:50:52;99836.81;;;9.60;100.00
45541;BME280;31265;49.680;8.608;2023-01-13T05:53:22;99829.78;;;9.59;100.00
45541;BME280;31265;49.680;8.608;2023-01-13T05:55:52;99840.84;;;9.59;100.00
45541;BME280;31265;49.680;8.608;2023-01-13T05:58:24;99846.22;;;9.57;100.00
45541;BME280;31265;49.680;8.608;2023-01-13T06:00:58;99851.03;;;9.56;100.00
45541;BME280;31265;49.680;8.608;2023-01-13T06:03:26;99846.81;;;9.55;100.00
45541;BME280;31265;49.680;8.608;2023-01-13T06:05:54;99851.44;;;9.53;100.00
45541;BME280;31265;49.680;8.608;2023-01-13T06:08:26;99861.28;;;9.46;100.00
45541;BME280;31265;49.680;8.608;2023-01-13T06:10:56;99864.41;;;9.50;100.00
45541;BME280;31265;49.680;8.608;2023-01-13T06:13:25;99879.88;;;9.53;100.00
45541;BME280;31265;49.680;8.608;2023-01-13T06:15:55;99881.38;;;9.46;100.00
45541;BME280;31265;49.680;8.608;2023-01-13T06:18:25;99890.22;;;9.53;100.00
45541;BME280;31265;49.680;8.608;2023-01-13T06:20:54;99894.44;;;9.54;100.00
45541;BME280;31265;49.680;8.608;2023-01-13T06:23:22;99900.44;;;9.42;100.00
45541;BME280;31265;49.680;8.608;2023-01-13T06:26:11;99929.38;;;9.49;100.00
45541;BME280;31265;49.680;8.608;2023-01-13T06:28:42;99938.88;;;9.38;100.00
45541;BME280;31265;49.680;8.608;2023-01-13T06:31:11;99945.84;;;9.47;100.00
45541;BME280;31265;49.680;8.608;2023-01-13T06:33:42;99945.97;;;9.24;100.00
45541;BME280;31265;49.680;8.608;2023-01-13T06:36:16;99960.00;;;8.86;100.00
45541;BME280;31265;49.680;8.608;2023-01-13T06:38:53;99943.50;;;8.47;100.00
45541;BME280;31265;49.680;8.608;2023-01-13T06:41:25;99950.50;;;8.25;100.00
45541;BME280;31265;49.680;8.608;2023-01-13T06:44:08;99958.63;;;8.23;100.00
45541;BME280;31265;49.680;8.608;2023-01-13T06:46:38;99972.81;;;8.19;100.00
45541;BME280;31265;49.680;8.608;2023-01-13T06:49:06;99963.81;;;8.11;100.00
45541;BME280;31265;49.680;8.608;2023-01-13T06:51:35;99971.72;;;8.07;100.00
45541;BME280;31265;49.680;8.608;2023-01-13T06:54:04;99963.81;;;8.11;100.00
45541;BME280;31265;49.680;8.608;2023-01-13T06:56:34;99962.31;;;8.18;100.00
45541;BME280;31265;49.680;8.608;2023-01-13T06:59:02;99961.97;;;8.14;100.00
45541;BME280;31265;49.680;8.608;2023-01-13T07:01:33;99963.63;;;8.09;100.00
45541;BME280;31265;49.680;8.608;2023-01-13T07:04:02;99943.91;;;8.05;100.00
45541;BME280;31265;49.680;8.608;2023-01-13T07:06:31;99945.03;;;7.94;100.00
45541;BME280;31265;49.680;8.608;2023-01-13T07:08:59;99946.88;;;7.92;100.00
45541;BME280;31265;49.680;8.608;2023-01-13T07:11:28;99936.16;;;7.96;100.00
45541;BME280;31265;49.680;8.608;2023-01-13T07:13:59;99933.06;;;7.84;100.00
45541;BME280;31265;49.680;8.608;2023-01-13T07:16:45;99934.53;;;7.85;100.00
45541;BME280;31265;49.680;8.608;2023-01-13T07:19:18;99938.94;;;7.81;100.00
45541;BME280;31265;49.680;8.608;2023-01-13T07:21:51;99942.25;;;7.79;100.00
45541;BME280;31265;49.680;8.608;2023-01-13T07:24:19;99954.22;;;7.82;100.00
45541;BME280;31265;49.680;8.608;2023-01-13T07:26:49;99960.09;;;7.78;100.00
45541;BME280;31265;49.680;8.608;2023-01-13T07:29:19;99979.25;;;7.84;100.00
45541;BME280;31265;49.680;8.608;2023-01-13T07:31:47;99985.16;;;7.88;100.00
45541;BME280;31265;49.680;8.608;2023-01-13T07:34:16;99988.31;;;7.92;100.00
45541;BME280;31265;49.680;8.608;2023-01-13T07:36:44;99976.34;;;7.89;100.00
45541;BME280;31265;49.680;8.608;2023-01-13T07:39:13;99980.75;;;7.92;100.00
45541;BME280;31265;49.680;8.608;2023-01-13T07:41:41;99981.28;;;7.91;100.00
45541;BME280;31265;49.680;8.608;2023-01-13T07:44:28;99979.09;;;7.82;100.00
45541;BME280;31265;49.680;8.608;2023-01-13T07:46:57;99969.88;;;7.79;100.00
45541;BME280;31265;49.680;8.608;2023-01-13T07:49:25;99981.47;;;7.78;100.00
45541;BME280;31265;49.680;8.608;2023-01-13T07:51:54;99975.94;;;7.78;100.00
45541;BME280;31265;49.680;8.608;2023-01-13T07:54:25;99975.38;;;7.71;100.00
45541;BME280;31265;49.680;8.608;2023-01-13T07:57:06;100003.19;;;7.73;100.00
45541;BME280;31265;49.680;8.608;2023-01-13T07:59:36;100007.06;;;7.70;100.00
45541;BME280;31265;49.680;8.608;2023-01-13T08:02:05;100010.91;;;7.67;100.00
45541;BME280;31265;49.680;8.608;2023-01-13T08:04:33;100017.53;;;7.64;100.00
45541;BME280;31265;49.680;8.608;2023-01-13T08:07:03;100011.66;;;7.68;100.00
45541;BME280;31265;49.680;8.608;2023-01-13T08:09:32;100020.13;;;7.62;100.00
45541;BME280;31265;49.680;8.608;2023-01-13T08:12:00;100026.00;;;7.66;100.00
45541;BME280;31265;49.680;8.608;2023-01-13T08:14:48;100034.66;;;7.63;100.00
45541;BME280;31265;49.680;8.608;2023-01-13T08:17:18;100048.84;;;7.59;100.00
45541;BME280;31265;49.680;8.608;2023-01-13T08:19:50;100060.75;;;7.54;100.00
45541;BME280;31265;49.680;8.608;2023-01-13T08:22:20;100069.94;;;7.49;100.00
45541;BME280;31265;49.680;8.608;2023-01-13T08:24:57;100066.25;;;7.46;100.00
45541;BME280;31265;49.680;8.608;2023-01-13T08:27:27;100071.78;;;7.46;100.00
45541;BME280;31265;49.680;8.608;2023-01-13T08:29:58;100070.88;;;7.51;100.00
45541;BME280;31265;49.680;8.608;2023-01-13T08:32:29;100083.81;;;7.64;100.00
45541;BME280;31265;49.680;8.608;2023-01-13T08:34:57;100082.00;;;7.67;100.00
45541;BME280;31265;49.680;8.608;2023-01-13T08:37:25;100083.63;;;7.62;100.00
45541;BME280;31265;49.680;8.608;2023-01-13T08:39:54;100093.75;;;7.60;100.00
45541;BME280;31265;49.680;8.608;2023-01-13T08:42:23;100092.66;;;7.70;100.00
45541;BME280;31265;49.680;8.608;2023-01-13T08:44:53;100103.31;;;7.66;100.00
45541;BME280;31265;49.680;8.608;2023-01-13T08:47:25;100107.59;;;7.75;100.00
45541;BME280;31265;49.680;8.608;2023-01-13T08:49:54;100108.13;;;7.73;100.00
45541;BME280;31265;49.680;8.608;2023-01-13T08:52:22;100112.00;;;7.78;100.00
45541;BME280;31265;49.680;8.608;2023-01-13T08:54:51;100105.97;;;7.80;100.00
45541;BME280;31265;49.680;8.608;2023-01-13T08:57:20;100113.88;;;7.83;100.00
45541;BME280;31265;49.680;8.608;2023-01-13T08:59:52;100110.00;;;7.79;100.00
45541;BME280;31265;49.680;8.608;2023-01-13T09:02:20;100105.03;;;7.77;100.00
45541;BME280;31265;49.680;8.608;2023-01-13T09:04:57;100112.59;;;7.84;100.00
45541;BME280;31265;49.680;8.608;2023-01-13T09:07:29;100115.38;;;7.92;100.00
45541;BME280;31265;49.680;8.608;2023-01-13T09:09:57;100109.34;;;8.01;100.00
45541;BME280;31265;49.680;8.608;2023-01-13T09:12:26;100110.78;;;8.02;100.00
45541;BME280;31265;49.680;8.608;2023-01-13T09:15:12;100115.94;;;7.98;100.00
45541;BME280;31265;49.680;8.608;2023-01-13T09:17:44;100124.81;;;8.12;100.00
45541;BME280;31265;49.680;8.608;2023-01-13T09:20:15;100134.03;;;8.14;100.00
45541;BME280;31265;49.680;8.608;2023-01-13T09:22:44;100142.50;;;8.09;100.00
45541;BME280;31265;49.680;8.608;2023-01-13T09:25:12;100148.78;;;8.17;100.00
45541;BME280;31265;49.680;8.608;2023-01-13T09:27:41;100150.25;;;8.18;100.00
45541;BME280;31265;49.680;8.608;2023-01-13T09:30:10;100144.22;;;8.43;100.00
45541;BME280;31265;49.680;8.608;2023-01-13T09:32:38;100148.31;;;8.65;100.00
45541;BME280;31265;49.680;8.608;2023-01-13T09:35:08;100136.47;;;8.87;100.00
45541;BME280;31265;49.680;8.608;2023-01-13T09:37:38;100145.13;;;9.07;100.00
45541;BME280;31265;49.680;8.608;2023-01-13T09:40:14;100146.03;;;9.32;100.00
45541;BME280;31265;49.680;8.608;2023-01-13T09:42:46;100155.59;;;9.39;100.00
45541;BME280;31265;49.680;8.608;2023-01-13T09:45:36;100162.78;;;9.34;100.00
45541;BME280;31265;49.680;8.608;2023-01-13T09:48:11;100172.63;;;9.20;100.00
45541;BME280;31265;49.680;8.608;2023-01-13T09:50:53;100168.94;;;9.10;100.00
45541;BME280;31265;49.680;8.608;2023-01-13T09:53:28;100170.22;;;9.09;100.00
45541;BME280;31265;49.680;8.608;2023-01-13T09:56:00;100181.13;;;8.99;100.00
45541;BME280;31265;49.680;8.608;2023-01-13T09:58:28;100175.22;;;9.02;100.00
45541;BME280;31265;49.680;8.608;2023-01-13T10:01:05;100187.22;;;9.13;100.00
45541;BME280;31265;49.680;8.608;2023-01-13T10:03:37;100190.00;;;9.05;100.00
45541;BME280;31265;49.680;8.608;2023-01-13T10:06:11;100200.47;;;9.14;100.00
45541;BME280;31265;49.680;8.608;2023-01-13T10:08:43;100178.72;;;9.11;100.00
45541;BME280;31265;49.680;8.608;2023-01-13T10:11:15;100180.38;;;9.06;100.00
45541;BME280;31265;49.680;8.608;2023-01-13T10:14:07;100184.81;;;9.09;100.00
45541;BME280;31265;49.680;8.608;2023-01-13T10:16:40;100182.06;;;8.94;100.00
45541;BME280;31265;49.680;8.608;2023-01-13T10:19:15;100174.31;;;8.77;100.00
45541;BME280;31265;49.680;8.608;2023-01-13T10:22:16;100170.06;;;8.91;100.00
45541;BME280;31265;49.680;8.608;2023-01-13T10:28:14;100168.00;;;9.07;100.00
45541;BME280;31265;49.680;8.608;2023-01-13T10:30:47;100170.59;;;9.13;100.00
45541;BME280;31265;49.680;8.608;2023-01-13T10:33:18;100166.31;;;9.19;100.00
45541;BME280;31265;49.680;8.608;2023-01-13T10:35:53;100155.47;;;9.14;100.00
45541;BME280;31265;49.680;8.608;2023-01-13T10:38:28;100159.88;;;9.09;100.00
45541;BME280;31265;49.680;8.608;2023-01-13T10:40:58;100160.81;;;9.12;100.00
45541;BME280;31265;49.680;8.608;2023-01-13T10:43:30;100142.69;;;9.26;100.00
45541;BME280;31265;49.680;8.608;2023-01-13T10:46:04;100146.53;;;9.38;100.00
45541;BME280;31265;49.680;8.608;2023-01-13T10:48:38;100156.50;;;9.41;100.00
45541;BME280;31265;49.680;8.608;2023-01-13T10:51:26;100154.44;;;9.57;100.00
45541;BME280;31265;49.680;8.608;2023-01-13T10:53:58;100150.91;;;9.57;100.00
45541;BME280;31265;49.680;8.608;2023-01-13T10:56:29;100149.84;;;9.52;100.00
45541;BME280;31265;49.680;8.608;2023-01-13T10:59:19;100146.53;;;9.46;100.00
45541;BME280;31265;49.680;8.608;2023-01-13T11:01:57;100138.25;;;9.38;100.00
45541;BME280;31265;49.680;8.608;2023-01-13T11:04:32;100135.66;;;9.40;100.00
45541;BME280;31265;49.680;8.608;2023-01-13T11:07:03;100130.22;;;9.58;100.00
45541;BME280;31265;49.680;8.608;2023-01-13T11:09:33;100140.63;;;9.50;100.00
45541;BME280;31265;49.680;8.608;2023-01-13T11:12:03;100137.25;;;9.59;100.00
45541;BME280;31265;49.680;8.608;2023-01-13T11:14:36;100131.13;;;9.68;100.00
45541;BME280;31265;49.680;8.608;2023-01-13T11:17:19;100137.22;;;9.66;100.00
45541;BME280;31265;49.680;8.608;2023-01-13T11:19:59;100148.69;;;9.63;100.00
45541;BME280;31265;49.680;8.608;2023-01-13T11:22:38;100140.72;;;9.67;100.00
45541;BME280;31265;49.680;8.608;2023-01-13T11:25:10;100147.69;;;9.76;100.00
45541;BME280;31265;49.680;8.608;2023-01-13T11:27:46;100159.91;;;9.73;100.00
45541;BME280;31265;49.680;8.608;2023-01-13T11:30:25;100157.31;;;9.75;100.00
45541;BME280;31265;49.680;8.608;2023-01-13T11:33:08;100159.34;;;9.74;100.00
45541;BME280;31265;49.680;8.608;2023-01-13T11:35:46;100145.66;;;9.76;100.00
45541;BME280;31265;49.680;8.608;2023-01-13T11:38:25;100147.47;;;9.81;100.00
45541;BME280;31265;49.680;8.608;2023-01-13T11:41:00;100165.38;;;9.88;100.00
45541;BME280;31265;49.680;8.608;2023-01-13T11:43:37;100153.22;;;9.83;100.00
45541;BME280;31265;49.680;8.608;2023-01-13T11:46:09;100169.25;;;9.93;100.00
45541;BME280;31265;49.680;8.608;2023-01-13T11:48:40;100178.38;;;10.10;100.00
45541;BME280;31265;49.680;8.608;2023-01-13T11:51:20;100168.56;;;10.17;100.00
45541;BME280;31265;49.680;8.608;2023-01-13T11:54:03;100172.16;;;10.02;100.00
45541;BME280;31265;49.680;8.608;2023-01-13T11:56:54;100177.63;;;9.77;100.00
45541;BME280;31265;49.680;8.608;2023-01-13T11:59:44;100180.03;;;9.73;100.00
45541;BME280;31265;49.680;8.608;2023-01-13T12:02:33;100190.44;;;9.57;100.00
45541;BME280;31265;49.680;8.608;2023-01-13T12:05:14;100187.13;;;9.51;100.00
45541;BME280;31265;49.680;8.608;2023-01-13T12:07:54;100193.22;;;9.57;100.00
45541;BME280;31265;49.680;8.608;2023-01-13T12:10:36;100183.41;;;9.56;100.00
45541;BME280;31265;49.680;8.608;2023-01-13T12:13:20;100176.53;;;9.73;100.00
45541;BME280;31265;49.680;8.608;2023-01-13T12:16:29;100202.91;;;10.22;100.00
45541;BME280;31265;49.680;8.608;2023-01-13T12:19:21;100159.25;;;10.30;100.00
45541;BME280;31265;49.680;8.608;2023-01-13T12:22:02;100177.66;;;10.10;100.00
45541;BME280;31265;49.680;8.608;2023-01-13T12:24:40;100182.16;;;9.98;100.00
45541;BME280;31265;49.680;8.608;2023-01-13T12:27:16;100177.59;;;9.85;100.00
45541;BME280;31265;49.680;8.608;2023-01-13T12:29:48;100183.94;;;9.70;100.00
45541;BME280;31265;49.680;8.608;2023-01-13T12:32:23;100180.78;;;9.66;100.00
45541;BME280;31265;49.680;8.608;2023-01-13T12:35:28;100179.91;;;9.56;100.00
45541;BME280;31265;49.680;8.608;2023-01-13T12:38:03;100188.59;;;9.44;100.00
45541;BME280;31265;49.680;8.608;2023-01-13T12:40:45;100178.47;;;9.39;100.00
45541;BME280;31265;49.680;8.608;2023-01-13T12:43:19;100193.81;;;9.33;100.00
45541;BME280;31265;49.680;8.608;2023-01-13T12:49:26;100184.59;;;9.15;100.00
45541;BME280;31265;49.680;8.608;2023-01-13T12:52:14;100179.44;;;9.19;100.00
45541;BME280;31265;49.680;8.608;2023-01-13T12:55:18;100172.44;;;9.18;100.00
45541;BME280;31265;49.680;8.608;2023-01-13T12:57:56;100162.47;;;9.22;100.00
45541;BME280;31265;49.680;8.608;2023-01-13T13:00:31;100160.59;;;9.33;100.00
45541;BME280;31265;49.680;8.608;2023-01-13T13:03:36;100155.78;;;9.33;100.00
45541;BME280;31265;49.680;8.608;2023-01-13T13:06:23;100159.44;;;9.51;100.00
45541;BME280;31265;49.680;8.608;2023-01-13T13:09:01;100165.91;;;9.46;100.00
45541;BME280;31265;49.680;8.608;2023-01-13T13:11:38;100164.03;;;9.56;100.00
45541;BME280;31265;49.680;8.608;2023-01-13T13:15:00;100161.81;;;9.55;100.00
45541;BME280;31265;49.680;8.608;2023-01-13T13:17:40;100171.88;;;9.83;100.00
45541;BME280;31265;49.680;8.608;2023-01-13T13:23:26;100187.94;;;10.25;100.00
45541;BME280;31265;49.680;8.608;2023-01-13T13:26:16;100187.47;;;10.44;100.00
45541;BME280;31265;49.680;8.608;2023-01-13T13:32:11;100185.63;;;10.71;100.00
45541;BME280;31265;49.680;8.608;2023-01-13T13:34:48;100188.44;;;10.64;100.00
45541;BME280;31265;49.680;8.608;2023-01-13T13:37:31;100203.72;;;10.47;100.00
45541;BME280;31265;49.680;8.608;2023-01-13T13:40:27;100214.94;;;10.24;100.00
45541;BME280;31265;49.680;8.608;2023-01-13T13:43:16;100226.25;;;10.11;100.00
45541;BME280;31265;49.680;8.608;2023-01-13T13:46:16;100223.00;;;9.97;100.00
45541;BME280;31265;49.680;8.608;2023-01-13T13:49:08;100213.66;;;9.77;100.00
45541;BME280;31265;49.680;8.608;2023-01-13T13:51:42;100207.97;;;9.60;100.00
45541;BME280;31265;49.680;8.608;2023-01-13T13:54:13;100219.06;;;9.44;100.00